createdAt,value
2018-08-19T00:01:32.246Z,115.15
2018-08-19T00:03:59.648Z,124.80
2018-08-19T00:06:27.557Z,116.20
2018-08-19T00:08:58.505Z,103.07
2018-08-19T00:11:25.917Z,98.58
2018-08-19T00:13:53.521Z,123.87
2018-08-19T00:16:21.075Z,95.22
2018-08-19T00:18:48.762Z,107.60
2018-08-19T00:21:16.146Z,97.25
2018-08-19T00:23:48.693Z,106.67
2018-08-19T00:26:16.144Z,91.78
2018-08-19T00:28:44.206Z,98.73
2018-08-19T00:31:11.584Z,97.02
2018-08-19T00:33:38.982Z,109.70
2018-08-19T00:36:16.289Z,106.07
2018-08-19T00:38:44.278Z,101.15
2018-08-19T00:41:11.940Z,92.80
2018-08-19T00:43:40.933Z,99.62
2018-08-19T00:46:13.097Z,84.30
2018-08-19T00:48:40.969Z,93.55
2018-08-19T00:51:08.293Z,112.08
2018-08-19T00:53:35.965Z,106.72
2018-08-19T00:56:03.650Z,101.35
2018-08-19T00:58:30.998Z,121.85
2018-08-19T01:00:58.948Z,108.45
2018-08-19T01:03:26.598Z,121.13
2018-08-19T01:05:54.037Z,91.72
2018-08-19T01:08:22.052Z,111.90
2018-08-19T01:10:49.458Z,99.00
2018-08-19T01:13:17.185Z,114.40
2018-08-19T01:15:44.845Z,96.17
2018-08-19T01:18:12.920Z,108.50
2018-08-19T01:20:40.316Z,117.00
2018-08-19T01:23:08.038Z,106.78
2018-08-19T01:25:35.690Z,110.63
2018-08-19T01:28:03.017Z,87.37
2018-08-19T01:30:30.357Z,94.62
2018-08-19T01:32:58.272Z,111.20
2018-08-19T01:35:31.171Z,113.57
2018-08-19T01:37:58.929Z,100.67
2018-08-19T01:40:26.584Z,94.70
2018-08-19T01:42:54.260Z,110.23
2018-08-19T01:45:21.654Z,107.20
2018-08-19T01:47:49.660Z,103.22
2018-08-19T01:50:18.328Z,124.97
2018-08-19T01:52:48.256Z,114.03
2018-08-19T01:55:15.895Z,140.03
2018-08-19T01:57:47.378Z,149.20
2018-08-19T02:00:16.392Z,144.17
2018-08-19T02:02:55.933Z,158.15
2018-08-19T02:05:24.441Z,135.72
2018-08-19T02:07:54.429Z,158.40
2018-08-19T02:10:23.013Z,145.20
2018-08-19T02:12:51.489Z,153.07
2018-08-19T02:15:19.265Z,158.97
2018-08-19T02:17:52.447Z,141.47
2018-08-19T02:20:20.930Z,141.05
2018-08-19T02:22:53.095Z,147.02
2018-08-19T02:25:20.454Z,140.00
2018-08-19T02:27:50.225Z,161.32
2018-08-19T02:30:17.881Z,147.47
2018-08-19T02:32:45.290Z,152.30
2018-08-19T02:35:14.269Z,159.43
2018-08-19T02:37:42.045Z,126.30
2018-08-19T02:40:11.521Z,128.30
2018-08-19T02:42:39.165Z,134.52
2018-08-19T02:45:07.664Z,129.87
2018-08-19T02:47:35.933Z,124.22
2018-08-19T02:50:03.533Z,139.75
2018-08-19T02:52:33.449Z,148.22
2018-08-19T02:55:02.074Z,137.80
2018-08-19T02:57:30.200Z,140.62
2018-08-19T02:59:58.540Z,141.43
2018-08-19T03:02:31.693Z,145.40
2018-08-19T03:04:59.717Z,120.85
2018-08-19T03:07:30.142Z,132.50
2018-08-19T03:10:05.411Z,140.52
2018-08-19T03:12:33.472Z,141.25
2018-08-19T03:15:01.267Z,123.80
2018-08-19T03:17:29.578Z,131.60
2018-08-19T03:19:58.312Z,133.53
2018-08-19T03:22:26.691Z,137.82
2018-08-19T03:24:55.341Z,144.77
2018-08-19T03:27:22.728Z,124.15
2018-08-19T03:29:55.004Z,131.20
2018-08-19T03:32:23.083Z,135.68
2018-08-19T03:34:51.352Z,131.55
2018-08-19T03:37:18.708Z,133.90
2018-08-19T03:39:46.383Z,168.55
2018-08-19T03:42:15.277Z,146.18
2018-08-19T03:44:43.948Z,148.80
2018-08-19T03:47:25.988Z,139.37
2018-08-19T03:49:54.642Z,142.22
2018-08-19T03:52:22.711Z,141.70
2018-08-19T03:54:50.371Z,164.28
2018-08-19T03:57:19.472Z,149.02
2018-08-19T03:59:46.839Z,146.95
2018-08-19T04:02:14.893Z,150.65
2018-08-19T04:04:42.240Z,116.93
2018-08-19T04:07:10.128Z,121.15
2018-08-19T04:09:37.496Z,140.55
2018-08-19T04:12:07.285Z,136.50
2018-08-19T04:14:35.939Z,130.93
2018-08-19T04:17:03.725Z,122.78
2018-08-19T04:19:31.692Z,150.57
2018-08-19T04:21:59.793Z,132.10
2018-08-19T04:24:27.853Z,163.43
2018-08-19T04:26:56.637Z,148.97
2018-08-19T04:29:25.744Z,149.62
2018-08-19T04:31:53.238Z,131.45
2018-08-19T04:34:20.974Z,161.10
2018-08-19T04:36:48.643Z,133.82
2018-08-19T04:39:16.050Z,140.00
2018-08-19T04:41:44.049Z,147.90
2018-08-19T04:44:11.832Z,157.43
2018-08-19T04:46:39.277Z,160.88
2018-08-19T04:49:06.934Z,148.82
2018-08-19T04:51:34.651Z,151.45
2018-08-19T04:54:02.604Z,164.43
2018-08-19T04:56:30.177Z,149.47
2018-08-19T04:58:57.593Z,130.60
2018-08-19T05:01:25.246Z,136.18
2018-08-19T05:03:52.904Z,163.12
2018-08-19T05:06:20.248Z,163.43
2018-08-19T05:08:47.637Z,161.70
2018-08-19T05:11:15.356Z,160.05
2018-08-19T05:13:43.045Z,166.53
2018-08-19T05:16:10.722Z,176.72
2018-08-19T05:18:38.100Z,184.47
2018-08-19T05:21:11.020Z,160.35
2018-08-19T05:23:39.333Z,179.60
2018-08-19T05:26:06.739Z,138.80
2018-08-19T05:28:34.411Z,162.00
2018-08-19T05:31:02.000Z,150.65
2018-08-19T05:33:29.396Z,164.72
2018-08-19T05:35:57.452Z,147.45
2018-08-19T05:38:24.864Z,151.72
2018-08-19T05:40:57.670Z,161.00
2018-08-19T05:43:25.653Z,167.77
2018-08-19T05:45:56.236Z,152.30
2018-08-19T05:48:24.073Z,147.90
2018-08-19T05:50:51.440Z,163.63
2018-08-19T05:53:18.932Z,155.32
2018-08-19T05:55:46.864Z,113.20
2018-08-19T05:58:14.579Z,151.63
2018-08-19T06:00:43.981Z,144.95
2018-08-19T06:03:11.722Z,128.77
2018-08-19T06:05:39.417Z,127.10
2018-08-19T06:08:12.528Z,152.73
2018-08-19T06:10:40.384Z,138.37
2018-08-19T06:13:08.745Z,132.30
2018-08-19T06:15:36.101Z,139.97
2018-08-19T06:18:03.868Z,145.72
2018-08-19T06:20:32.040Z,153.32
2018-08-19T06:23:00.329Z,146.75
2018-08-19T06:25:27.820Z,120.70
2018-08-19T06:27:56.238Z,144.30
2018-08-19T06:30:23.909Z,130.27
2018-08-19T06:32:51.317Z,129.07
2018-08-19T06:35:19.248Z,121.40
2018-08-19T06:37:46.657Z,121.37
2018-08-19T06:40:15.916Z,160.88
2018-08-19T06:42:43.308Z,132.15
2018-08-19T06:45:11.398Z,134.47
2018-08-19T06:47:39.484Z,131.67
2018-08-19T06:50:12.628Z,134.25
2018-08-19T06:52:40.253Z,123.80
2018-08-19T06:55:07.681Z,121.20
2018-08-19T06:57:35.992Z,129.20
2018-08-19T07:00:06.118Z,144.87
2018-08-19T07:02:33.456Z,158.30
2018-08-19T07:05:00.852Z,158.47
2018-08-19T07:07:28.594Z,151.60
2018-08-19T07:09:55.994Z,177.07
2018-08-19T07:12:24.009Z,127.80
2018-08-19T07:14:51.789Z,152.57
2018-08-19T07:17:19.617Z,153.85
2018-08-19T07:19:47.414Z,199.70
2018-08-19T07:22:18.634Z,156.63
2018-08-19T07:24:46.185Z,116.00
2018-08-19T07:27:13.591Z,136.07
2018-08-19T07:29:41.045Z,133.93
2018-08-19T07:32:09.597Z,164.65
2018-08-19T07:34:37.453Z,123.05
2018-08-19T07:37:05.360Z,163.90
2018-08-19T07:39:34.130Z,208.17
2018-08-19T07:42:01.796Z,166.70
2018-08-19T07:44:29.725Z,212.85
2018-08-19T07:46:57.134Z,164.25
2018-08-19T07:49:25.026Z,176.35
2018-08-19T07:51:53.012Z,186.50
2018-08-19T07:54:20.393Z,184.83
2018-08-19T07:56:47.837Z,171.93
2018-08-19T07:59:16.573Z,197.17
2018-08-19T08:01:44.240Z,193.80
2018-08-19T08:04:11.888Z,212.78
2018-08-19T08:06:39.271Z,204.95
2018-08-19T08:09:07.601Z,162.35
2018-08-19T08:11:35.021Z,195.22
2018-08-19T08:14:03.658Z,194.63
2018-08-19T08:16:31.780Z,187.12
2018-08-19T08:18:59.714Z,204.70
2018-08-19T08:21:27.917Z,175.23
2018-08-19T08:23:55.503Z,184.43
2018-08-19T08:26:23.117Z,184.35
2018-08-19T08:28:55.823Z,159.15
2018-08-19T08:31:23.644Z,169.93
2018-08-19T08:33:51.304Z,136.03
2018-08-19T08:36:18.668Z,154.13
2018-08-19T08:38:46.324Z,164.60
2018-08-19T08:41:13.659Z,160.93
2018-08-19T08:43:40.989Z,145.57
2018-08-19T08:46:10.142Z,174.27
2018-08-19T08:48:37.496Z,155.27
2018-08-19T08:51:05.266Z,177.62
2018-08-19T08:53:37.773Z,148.97
2018-08-19T08:56:06.530Z,160.35
2018-08-19T08:58:34.596Z,178.95
2018-08-19T09:01:02.565Z,157.10
2018-08-19T09:03:30.061Z,165.47
2018-08-19T09:05:57.597Z,191.32
2018-08-19T09:08:25.342Z,172.13
2018-08-19T09:10:53.317Z,191.90
2018-08-19T09:13:21.501Z,188.63
2018-08-19T09:15:48.836Z,172.70
2018-08-19T09:18:16.510Z,230.73
2018-08-19T09:20:44.160Z,175.10
2018-08-19T09:23:11.850Z,186.22
2018-08-19T09:25:39.460Z,204.68
2018-08-19T09:28:07.064Z,207.15
2018-08-19T09:30:36.605Z,173.37
2018-08-19T09:33:04.102Z,176.32
2018-08-19T09:35:33.218Z,173.85
2018-08-19T09:38:11.882Z,183.30
2018-08-19T09:40:39.493Z,143.78
2018-08-19T09:43:08.280Z,209.17
2018-08-19T09:45:47.613Z,158.68
2018-08-19T09:48:29.225Z,180.10
2018-08-19T09:51:21.759Z,202.53
2018-08-19T09:53:49.494Z,165.87
2018-08-19T09:56:20.853Z,187.68
2018-08-19T09:59:02.784Z,163.90
2018-08-19T10:01:36.472Z,185.57
2018-08-19T10:04:08.446Z,206.30
2018-08-19T10:06:35.913Z,172.60
2018-08-19T10:09:03.554Z,168.60
2018-08-19T10:11:32.220Z,179.80
2018-08-19T10:14:03.246Z,191.90
2018-08-19T10:16:36.466Z,139.80
2018-08-19T10:19:03.866Z,195.67
2018-08-19T10:21:31.303Z,161.07
2018-08-19T10:24:03.480Z,183.65
2018-08-19T10:26:30.998Z,184.20
2018-08-19T10:28:58.685Z,199.93
2018-08-19T10:31:26.353Z,170.45
2018-08-19T10:33:54.908Z,162.82
2018-08-19T10:36:22.353Z,175.07
2018-08-19T10:38:50.361Z,178.07
2018-08-19T10:41:17.813Z,181.00
2018-08-19T10:43:45.510Z,201.02
2018-08-19T10:46:13.464Z,222.40
2018-08-19T10:48:41.576Z,208.02
2018-08-19T10:51:09.258Z,182.65
2018-08-19T10:53:37.141Z,178.00
2018-08-19T10:56:04.626Z,205.25
2018-08-19T10:58:32.446Z,242.43
2018-08-19T11:00:59.780Z,232.30
2018-08-19T11:03:27.602Z,259.83
2018-08-19T11:05:56.560Z,280.07
2018-08-19T11:08:23.918Z,280.80
2018-08-19T11:10:51.353Z,350.10
2018-08-19T11:13:20.987Z,377.17
2018-08-19T11:15:50.211Z,377.85
2018-08-19T11:18:27.861Z,383.43
2018-08-19T11:21:00.803Z,390.35
2018-08-19T11:23:28.427Z,395.93
2018-08-19T11:25:56.778Z,440.35
2018-08-19T11:28:30.086Z,416.38
2018-08-19T11:30:57.676Z,377.27
2018-08-19T11:33:30.670Z,359.48
2018-08-19T11:35:58.342Z,342.18
2018-08-19T11:38:26.119Z,431.23
2018-08-19T11:40:53.701Z,348.25
2018-08-19T11:43:21.274Z,396.20
2018-08-19T11:45:48.589Z,380.75
2018-08-19T11:48:16.023Z,466.73
2018-08-19T11:50:43.678Z,319.25
2018-08-19T11:53:11.261Z,457.35
2018-08-19T11:55:38.649Z,390.02
2018-08-19T11:58:07.608Z,402.07
2018-08-19T12:00:40.456Z,280.10
2018-08-19T12:03:08.986Z,395.23
2018-08-19T12:05:36.950Z,341.33
2018-08-19T12:08:04.912Z,438.83
2018-08-19T12:10:32.506Z,466.77
2018-08-19T12:13:00.416Z,399.60
2018-08-19T12:15:27.842Z,356.90
2018-08-19T12:17:56.527Z,420.25
2018-08-19T12:20:28.261Z,393.88
2018-08-19T12:22:56.859Z,399.92
2018-08-19T12:25:24.565Z,400.45
2018-08-19T12:27:51.986Z,392.83
2018-08-19T12:30:20.081Z,352.17
2018-08-19T12:32:48.984Z,375.25
2018-08-19T12:35:16.677Z,441.73
2018-08-19T12:37:44.804Z,471.42
2018-08-19T12:40:12.226Z,424.82
2018-08-19T12:42:44.920Z,495.20
2018-08-19T12:45:12.370Z,392.25
2018-08-19T12:47:41.446Z,372.58
2018-08-19T12:50:10.528Z,367.40
2018-08-19T12:52:37.870Z,439.63
2018-08-19T12:55:09.147Z,378.33
2018-08-19T12:57:37.549Z,446.15
2018-08-19T13:00:13.735Z,456.80
2018-08-19T13:02:43.248Z,414.78
2018-08-19T13:05:10.621Z,428.85
2018-08-19T13:07:38.230Z,462.90
2018-08-19T13:10:06.172Z,388.05
2018-08-19T13:12:38.545Z,367.30
2018-08-19T13:15:05.872Z,359.57
2018-08-19T13:17:33.570Z,435.27
2018-08-19T13:20:05.742Z,462.45
2018-08-19T13:22:34.114Z,492.30
2018-08-19T13:25:01.480Z,452.47
2018-08-19T13:27:29.745Z,430.07
2018-08-19T13:29:57.408Z,378.02
2018-08-19T13:32:25.888Z,419.83
2018-08-19T13:34:53.562Z,390.17
2018-08-19T13:37:21.418Z,391.27
2018-08-19T13:39:49.056Z,465.43
2018-08-19T13:42:16.729Z,479.83
2018-08-19T13:44:44.409Z,437.08
2018-08-19T13:47:12.871Z,437.70
2018-08-19T13:49:40.337Z,411.92
2018-08-19T13:52:08.206Z,369.85
2018-08-19T13:54:41.098Z,391.38
2018-08-19T13:57:08.601Z,413.48
2018-08-19T13:59:36.082Z,343.37
2018-08-19T14:02:04.125Z,388.35
2018-08-19T14:04:32.460Z,416.23
2018-08-19T14:07:00.425Z,495.98
2018-08-19T14:09:28.064Z,487.20
2018-08-19T14:11:55.471Z,477.17
2018-08-19T14:14:23.134Z,367.35
2018-08-19T14:16:50.777Z,386.00
2018-08-19T14:19:18.133Z,464.40
2018-08-19T14:21:45.440Z,459.52
2018-08-19T14:24:13.061Z,448.67
2018-08-19T14:26:40.482Z,434.33
2018-08-19T14:29:07.882Z,484.40
2018-08-19T14:31:35.489Z,482.92
2018-08-19T14:34:03.165Z,475.57
2018-08-19T14:36:30.772Z,479.77
2018-08-19T14:38:58.144Z,427.40
2018-08-19T14:41:25.575Z,447.90
2018-08-19T14:43:58.957Z,469.20
2018-08-19T14:46:27.533Z,476.03
2018-08-19T14:48:57.028Z,462.25
2018-08-19T14:51:24.792Z,491.75
2018-08-19T14:53:52.313Z,404.07
2018-08-19T14:56:19.928Z,377.45
2018-08-19T14:58:47.365Z,417.50
2018-08-19T15:01:14.733Z,448.00
2018-08-19T15:03:46.403Z,402.13
2018-08-19T15:06:13.793Z,454.10
2018-08-19T15:08:41.214Z,384.55
2018-08-19T15:11:08.674Z,486.08
2018-08-19T15:13:36.115Z,463.68
2018-08-19T15:16:03.789Z,440.47
2018-08-19T15:18:31.132Z,378.27
2018-08-19T15:20:59.029Z,484.73
2018-08-19T15:23:26.481Z,450.42
2018-08-19T15:25:53.805Z,428.02
2018-08-19T15:28:21.693Z,341.88
2018-08-19T15:30:49.117Z,492.37
2018-08-19T15:33:16.783Z,456.47
2018-08-19T15:35:44.274Z,415.32
2018-08-19T15:38:12.326Z,522.63
2018-08-19T15:40:42.565Z,447.25
2018-08-19T15:43:10.977Z,469.35
2018-08-19T15:45:38.356Z,389.93
2018-08-19T15:48:06.481Z,445.80
2018-08-19T15:50:34.183Z,408.20
2018-08-19T15:53:02.307Z,480.80
2018-08-19T15:55:30.076Z,428.38
2018-08-19T15:57:59.054Z,427.10
2018-08-19T16:00:26.497Z,481.75
2018-08-19T16:02:54.410Z,468.33
2018-08-19T16:05:22.364Z,491.73
2018-08-19T16:07:50.043Z,452.73
2018-08-19T16:10:17.691Z,384.13
2018-08-19T16:12:48.815Z,455.77
2018-08-19T16:15:21.489Z,449.32
2018-08-19T16:17:48.887Z,374.62
2018-08-19T16:20:16.381Z,433.27
2018-08-19T16:22:43.736Z,458.77
2018-08-19T16:25:11.202Z,443.20
2018-08-19T16:27:38.724Z,403.45
2018-08-19T16:30:06.511Z,429.77
2018-08-19T16:32:34.076Z,428.35
2018-08-19T16:35:01.961Z,473.00
2018-08-19T16:37:29.973Z,446.37
2018-08-19T16:39:58.735Z,345.80
2018-08-19T16:42:26.628Z,439.35
2018-08-19T16:44:54.565Z,466.00
2018-08-19T16:47:22.105Z,343.30
2018-08-19T16:49:49.601Z,348.00
2018-08-19T16:52:17.473Z,435.52
2018-08-19T16:54:44.961Z,414.27
2018-08-19T16:57:12.781Z,453.92
2018-08-19T16:59:40.652Z,435.52
2018-08-19T17:02:08.785Z,401.67
2018-08-19T17:04:37.526Z,403.18
2018-08-19T17:07:07.495Z,444.10
2018-08-19T17:09:36.281Z,402.97
2018-08-19T17:12:04.895Z,410.97
2018-08-19T17:14:33.212Z,365.20
2018-08-19T17:17:01.587Z,362.90
2018-08-19T17:19:30.357Z,409.77
2018-08-19T17:21:59.003Z,432.68
2018-08-19T17:24:27.304Z,448.95
2018-08-19T17:27:12.686Z,362.20
2018-08-19T17:29:41.034Z,406.27
2018-08-19T17:32:09.300Z,346.30
2018-08-19T17:34:42.202Z,449.97
2018-08-19T17:37:10.609Z,418.23
2018-08-19T17:39:39.199Z,405.52
2018-08-19T17:42:07.476Z,383.10
2018-08-19T17:44:36.796Z,350.27
2018-08-19T17:47:06.188Z,336.05
2018-08-19T17:49:35.642Z,372.30
2018-08-19T17:52:05.501Z,383.77
2018-08-19T17:54:34.077Z,398.23
2018-08-19T17:57:03.214Z,348.18
2018-08-19T17:59:31.399Z,377.63
2018-08-19T18:02:00.191Z,348.40
2018-08-19T18:04:35.121Z,284.70
2018-08-19T18:07:03.972Z,328.25
2018-08-19T18:09:33.270Z,325.68
2018-08-19T18:12:04.607Z,294.55
2018-08-19T18:14:33.669Z,287.90
2018-08-19T18:17:02.933Z,321.85
2018-08-19T18:19:34.460Z,261.02
2018-08-19T18:22:03.161Z,313.62
2018-08-19T18:24:31.799Z,272.35
2018-08-19T18:27:00.590Z,342.35
2018-08-19T18:29:33.097Z,273.07
2018-08-19T18:32:01.464Z,269.87
2018-08-19T18:34:29.658Z,259.03
2018-08-19T18:36:58.190Z,303.60
2018-08-19T18:39:26.822Z,255.55
2018-08-19T18:41:56.121Z,203.00
2018-08-19T18:44:24.753Z,257.25
2018-08-19T18:46:53.303Z,207.07
2018-08-19T18:49:23.035Z,231.20
2018-08-19T18:51:52.949Z,231.75
2018-08-19T18:54:29.591Z,247.12
2018-08-19T18:56:57.697Z,228.60
2018-08-19T18:59:25.601Z,230.73
2018-08-19T19:01:55.756Z,235.13
2018-08-19T19:04:23.356Z,235.78
2018-08-19T19:06:50.988Z,192.07
2018-08-19T19:09:18.795Z,249.10
2018-08-19T19:11:48.960Z,206.68
2018-08-19T19:14:19.028Z,215.52
2018-08-19T19:16:53.255Z,185.13
2018-08-19T19:19:21.189Z,193.60
2018-08-19T19:21:56.299Z,196.55
2018-08-19T19:24:43.957Z,197.30
2018-08-19T19:27:12.247Z,181.90
2018-08-19T19:29:40.450Z,132.07
2018-08-19T19:32:14.124Z,174.00
2018-08-19T19:34:41.608Z,177.33
2018-08-19T19:37:09.274Z,188.57
2018-08-19T19:39:37.509Z,157.85
2018-08-19T19:42:10.090Z,175.65
2018-08-19T19:44:38.783Z,154.90
2018-08-19T19:47:07.063Z,136.20
2018-08-19T19:49:38.142Z,171.72
2018-08-19T19:52:05.803Z,187.87
2018-08-19T19:54:34.349Z,165.77
2018-08-19T19:57:02.182Z,169.07
2018-08-19T19:59:31.274Z,141.77
2018-08-19T20:01:59.136Z,140.13
2018-08-19T20:04:26.658Z,144.53
2018-08-19T20:06:54.356Z,155.97
2018-08-19T20:09:22.029Z,164.05
2018-08-19T20:11:49.731Z,146.22
2018-08-19T20:14:18.504Z,145.57
2018-08-19T20:16:46.228Z,153.85
2018-08-19T20:19:13.897Z,145.57
2018-08-19T20:21:41.427Z,132.43
2018-08-19T20:24:09.168Z,138.95
2018-08-19T20:26:36.791Z,133.70
2018-08-19T20:29:04.493Z,109.60
2018-08-19T20:31:32.380Z,146.62
2018-08-19T20:34:00.267Z,138.32
2018-08-19T20:36:27.965Z,114.07
2018-08-19T20:38:56.567Z,126.60
2018-08-19T20:41:24.241Z,137.28
2018-08-19T20:43:52.708Z,135.10
2018-08-19T20:46:20.397Z,137.60
2018-08-19T20:48:49.134Z,107.43
2018-08-19T20:51:17.088Z,152.82
2018-08-19T20:53:45.261Z,124.53
2018-08-19T20:56:13.217Z,127.93
2018-08-19T20:58:40.931Z,139.22
2018-08-19T21:01:12.896Z,129.93
2018-08-19T21:03:40.472Z,142.03
2018-08-19T21:06:07.936Z,127.07
2018-08-19T21:08:35.437Z,155.80
2018-08-19T21:11:03.632Z,123.28
2018-08-19T21:13:31.540Z,116.70
2018-08-19T21:15:59.195Z,125.97
2018-08-19T21:18:27.024Z,113.72
2018-08-19T21:20:54.813Z,113.67
2018-08-19T21:23:22.716Z,121.17
2018-08-19T21:25:56.080Z,139.18
2018-08-19T21:28:23.731Z,121.05
2018-08-19T21:30:51.340Z,130.30
2018-08-19T21:33:18.971Z,122.30
2018-08-19T21:35:52.371Z,118.40
2018-08-19T21:38:21.049Z,122.07
2018-08-19T21:40:49.325Z,121.87
2018-08-19T21:43:18.277Z,118.20
2018-08-19T21:45:45.941Z,120.17
2018-08-19T21:48:16.198Z,129.27
2018-08-19T21:50:43.823Z,131.60
2018-08-19T21:53:14.598Z,127.02
2018-08-19T21:55:49.996Z,129.47
2018-08-19T21:58:18.112Z,133.97
2018-08-19T22:00:46.343Z,122.57
2018-08-19T22:03:20.113Z,121.20
2018-08-19T22:05:48.791Z,127.67
2018-08-19T22:08:16.696Z,130.75
2018-08-19T22:10:45.303Z,130.93
2018-08-19T22:13:13.412Z,125.05
2018-08-19T22:15:42.299Z,135.45
2018-08-19T22:18:11.272Z,142.87
2018-08-19T22:20:38.851Z,134.30
2018-08-19T22:23:06.667Z,122.40
2018-08-19T22:25:34.543Z,126.33
2018-08-19T22:28:01.980Z,129.23
2018-08-19T22:30:29.992Z,125.87
2018-08-19T22:32:58.006Z,132.40
2018-08-19T22:35:25.749Z,116.75
2018-08-19T22:37:53.620Z,127.25
2018-08-19T22:40:27.192Z,131.80
2018-08-19T22:42:54.892Z,128.93
2018-08-19T22:45:22.900Z,130.40
2018-08-19T22:47:50.409Z,125.50
2018-08-19T22:50:17.909Z,125.90
2018-08-19T22:52:45.651Z,128.93
2018-08-19T22:55:13.124Z,120.57
2018-08-19T22:57:41.021Z,114.47
2018-08-19T23:00:08.580Z,120.08
2018-08-19T23:02:36.460Z,115.90
2018-08-19T23:05:05.026Z,122.28
2018-08-19T23:07:32.616Z,139.93
2018-08-19T23:10:00.378Z,107.87
2018-08-19T23:12:28.237Z,111.32
2018-08-19T23:15:01.323Z,130.55
2018-08-19T23:17:28.831Z,122.90
2018-08-19T23:19:56.308Z,127.30
2018-08-19T23:22:24.137Z,125.65
2018-08-19T23:24:51.861Z,121.15
2018-08-19T23:27:19.635Z,121.45
2018-08-19T23:29:47.633Z,118.15
2018-08-19T23:32:15.376Z,111.03
2018-08-19T23:34:43.169Z,128.42
2018-08-19T23:37:10.984Z,127.50
2018-08-19T23:39:38.852Z,121.45
2018-08-19T23:42:06.729Z,115.03
2018-08-19T23:44:34.832Z,107.72
2018-08-19T23:47:02.909Z,115.80
2018-08-19T23:49:30.383Z,132.25
2018-08-19T23:51:57.919Z,120.62
2018-08-19T23:54:25.620Z,127.97
2018-08-19T23:56:53.084Z,126.00
2018-08-19T23:59:26.092Z,134.25
